Time;durP1;ratioP1;P1;durP2;ratioP2;P2;SDS_P1;SDS_P2;PMS_P1;PMS_P2;Temp;Humidity;BMP_temperature;BMP_pressure;BME280_temperature;BME280_humidity;BME280_pressure;Samples;Min_cycle;Max_cycle;Signal;HPM_P1;HPM_P2
2022/10/12 14:20:28;;;;;;;1.80;1.60;;;19.80;95.90;;;;;;5111043;27;20588;-73
2022/10/12 14:22:57;;;;;;;1.60;1.53;;;19.70;95.90;;;;;;5110065;28;20441;-75
2022/10/12 14:25:25;;;;;;;1.50;1.50;;;19.80;95.90;;;;;;5115437;28;20458;-73
2022/10/12 14:27:58;;;;;;;1.40;1.40;;;19.80;95.50;;;;;;5111463;28;20430;-74
2022/10/12 14:32:53;;;;;;;2.10;1.90;;;20.00;95.70;;;;;;5091009;22;20492;-67
2022/10/12 14:35:27;;;;;;;2.10;1.53;;;20.10;95.90;;;;;;5050384;28;20445;-66
2022/10/12 14:37:56;;;;;;;6.03;1.97;;;20.10;95.70;;;;;;5049964;28;20435;-68
2022/10/12 14:40:37;;;;;;;1.23;1.23;;;20.10;95.90;;;;;;5049492;28;20861;-66
2022/10/12 14:43:08;;;;;;;1.70;1.60;;;20.20;95.60;;;;;;5029455;28;20954;-68
2022/10/12 14:45:36;;;;;;;2.70;2.30;;;20.20;95.60;;;;;;5029201;28;20814;-67
2022/10/12 14:48:04;;;;;;;1.70;1.63;;;20.20;95.40;;;;;;5028877;28;20448;-68
2022/10/12 14:50:33;;;;;;;3.03;1.73;;;20.30;95.60;;;;;;5028991;28;20452;-67
2022/10/12 14:53:03;;;;;;;2.50;1.80;;;20.30;95.60;;;;;;5028887;28;20907;-67
2022/10/12 14:55:32;;;;;;;4.00;2.20;;;20.30;95.60;;;;;;5044086;28;20456;-67
2022/10/12 14:58:00;;;;;;;2.30;2.10;;;20.40;94.50;;;;;;5009502;28;20855;-65
2022/10/12 15:00:29;;;;;;;2.10;2.00;;;20.40;94.80;;;;;;5009147;28;21019;-68
2022/10/12 15:02:57;;;;;;;1.67;1.57;;;20.40;95.40;;;;;;5009729;28;20442;-66
2022/10/12 15:05:25;;;;;;;1.63;1.53;;;20.50;94.90;;;;;;5037528;28;20491;-68
2022/10/12 15:07:53;;;;;;;2.23;2.00;;;20.50;94.40;;;;;;5048811;28;20451;-66
2022/10/12 15:10:23;;;;;;;2.20;2.03;;;20.50;94.00;;;;;;5048822;28;20480;-68
2022/10/12 15:12:50;;;;;;;1.77;1.67;;;20.50;93.80;;;;;;5048388;28;20488;-67
2022/10/12 15:15:26;;;;;;;2.50;2.30;;;20.50;93.70;;;;;;5036258;28;20452;-66
2022/10/12 15:17:53;;;;;;;2.30;1.77;;;20.50;94.30;;;;;;5028924;28;20941;-67
2022/10/12 15:20:19;;;;;;;1.93;1.50;;;20.50;94.20;;;;;;5028773;28;20476;-66
2022/10/12 15:22:46;;;;;;;1.70;1.60;;;20.40;94.40;;;;;;5027399;28;20438;-72
2022/10/12 15:25:20;;;;;;;4.17;2.80;;;20.50;94.00;;;;;;5040478;28;20221;-71
2022/10/12 15:27:47;;;;;;;4.10;1.73;;;20.50;93.40;;;;;;5048697;28;20591;-72
2022/10/12 15:30:15;;;;;;;1.60;1.50;;;20.60;93.20;;;;;;5041948;28;20635;-68
2022/10/12 15:32:42;;;;;;;2.30;2.20;;;20.60;93.20;;;;;;5035152;28;20563;-66
2022/10/12 15:35:20;;;;;;;2.67;1.90;;;20.60;93.60;;;;;;5024630;28;20450;-67
2022/10/12 15:37:48;;;;;;;3.13;2.43;;;20.50;93.70;;;;;;5015665;28;20445;-66
2022/10/12 15:40:18;;;;;;;6.78;1.83;;;20.50;93.80;;;;;;5015067;28;20509;-69
2022/10/12 15:42:45;;;;;;;3.63;2.00;;;20.50;93.90;;;;;;5019705;28;20223;-67
2022/10/12 15:45:18;;;;;;;1.90;1.80;;;20.50;93.90;;;;;;5035079;28;20540;-67
2022/10/12 15:47:45;;;;;;;2.30;2.20;;;20.50;94.00;;;;;;5035262;28;20453;-67
2022/10/12 15:50:13;;;;;;;2.27;1.50;;;20.50;94.10;;;;;;5035298;28;20481;-67
2022/10/12 15:52:40;;;;;;;2.77;2.50;;;20.50;94.10;;;;;;5030774;28;20462;-67
2022/10/12 15:55:14;;;;;;;2.60;1.63;;;20.50;94.10;;;;;;5015109;28;20485;-67
2022/10/12 15:57:43;;;;;;;1.93;1.77;;;20.50;94.10;;;;;;4995469;28;20520;-67
2022/10/12 16:00:11;;;;;;;1.73;1.63;;;20.50;94.10;;;;;;4995341;28;20522;-68
2022/10/12 16:02:38;;;;;;;1.80;1.70;;;20.50;94.00;;;;;;5001488;28;20485;-66
2022/10/12 16:05:14;;;;;;;2.30;2.10;;;20.50;93.90;;;;;;5034862;28;20445;-67
2022/10/12 16:07:42;;;;;;;1.93;1.83;;;20.50;93.80;;;;;;5034776;28;20452;-67
2022/10/12 16:10:13;;;;;;;1.83;1.73;;;20.50;93.80;;;;;;5034551;28;20446;-68
2022/10/12 16:12:43;;;;;;;2.10;1.90;;;20.50;93.70;;;;;;5030827;28;20466;-67
2022/10/12 16:15:12;;;;;;;3.73;2.60;;;20.50;93.60;;;;;;5014664;28;20543;-68
2022/10/12 16:17:39;;;;;;;1.80;1.70;;;20.50;93.50;;;;;;5014802;28;20454;-68
2022/10/12 16:20:08;;;;;;;1.67;1.53;;;20.50;93.60;;;;;;5015422;28;20486;-68
2022/10/12 16:22:35;;;;;;;2.10;1.87;;;20.50;93.40;;;;;;5015770;28;20477;-65
2022/10/12 16:25:03;;;;;;;2.10;2.00;;;20.50;93.20;;;;;;5034381;28;20445;-67
2022/10/12 16:27:30;;;;;;;1.70;1.60;;;20.50;94.10;;;;;;5034213;28;20451;-66
2022/10/12 16:29:59;;;;;;;2.13;2.03;;;20.50;94.10;;;;;;5034162;28;20945;-65
2022/10/12 16:32:25;;;;;;;1.90;1.80;;;20.50;94.10;;;;;;5033925;28;20527;-65
2022/10/12 16:34:52;;;;;;;2.30;2.20;;;20.50;94.00;;;;;;5033230;28;20476;-65
2022/10/12 16:37:19;;;;;;;1.63;1.50;;;20.50;94.00;;;;;;5034051;28;20532;-66
2022/10/12 16:39:47;;;;;;;4.23;3.27;;;20.50;93.90;;;;;;5033871;28;20517;-66
2022/10/12 16:42:13;;;;;;;2.03;1.83;;;20.50;93.80;;;;;;5032958;28;20462;-67
2022/10/12 16:44:40;;;;;;;1.50;1.50;;;20.60;93.80;;;;;;5033990;28;20458;-66
2022/10/12 16:47:09;;;;;;;2.77;1.73;;;20.60;93.80;;;;;;5034299;28;20460;-67
2022/10/12 16:49:36;;;;;;;2.80;2.70;;;20.60;93.70;;;;;;5034179;28;20449;-66
2022/10/12 16:52:03;;;;;;;2.37;2.20;;;20.60;93.70;;;;;;5033549;28;20548;-66
2022/10/12 16:54:30;;;;;;;1.63;1.60;;;20.60;93.70;;;;;;5018105;28;20541;-66
2022/10/12 16:56:57;;;;;;;1.90;1.80;;;20.60;93.60;;;;;;5014066;28;20539;-65
2022/10/12 16:59:24;;;;;;;1.60;1.50;;;20.60;93.60;;;;;;5014345;28;20571;-66
2022/10/12 17:01:51;;;;;;;2.13;1.93;;;20.60;93.70;;;;;;5014118;28;20473;-66
2022/10/12 17:04:19;;;;;;;2.40;1.67;;;20.60;93.60;;;;;;5026529;28;20990;-66
2022/10/12 17:06:47;;;;;;;2.87;2.67;;;20.60;93.60;;;;;;5034751;28;20450;-65
2022/10/12 17:09:14;;;;;;;2.37;2.20;;;20.60;93.50;;;;;;5033948;28;20441;-68
2022/10/12 17:11:41;;;;;;;2.23;2.00;;;20.60;93.40;;;;;;5033857;28;20465;-67
2022/10/12 17:14:12;;;;;;;2.03;1.87;;;20.60;93.10;;;;;;5033793;28;20445;-69
2022/10/12 17:16:55;;;;;;;1.70;1.60;;;20.60;93.10;;;;;;5034531;28;20460;-68
2022/10/12 17:19:27;;;;;;;2.43;2.23;;;20.60;92.80;;;;;;5034943;28;20481;-68
2022/10/12 17:21:58;;;;;;;2.00;1.90;;;20.60;92.70;;;;;;5028665;28;20557;-65
2022/10/12 17:24:28;;;;;;;1.67;1.60;;;20.60;93.20;;;;;;5014163;28;20445;-66
2022/10/12 17:26:55;;;;;;;1.33;1.33;;;20.60;93.30;;;;;;5014085;28;20504;-65
2022/10/12 17:29:24;;;;;;;2.13;1.77;;;20.60;93.20;;;;;;5014178;28;20442;-66
2022/10/12 17:31:52;;;;;;;2.30;2.10;;;20.60;93.20;;;;;;5017346;28;20481;-67
2022/10/12 17:34:21;;;;;;;3.47;1.57;;;20.60;93.40;;;;;;5033340;28;20445;-67
2022/10/12 17:36:51;;;;;;;2.07;1.97;;;20.60;93.40;;;;;;5033387;28;20873;-65
2022/10/12 17:39:18;;;;;;;2.60;2.20;;;20.60;93.70;;;;;;5033424;28;20512;-69
2022/10/12 17:41:45;;;;;;;3.47;2.80;;;20.70;93.60;;;;;;5032517;28;20912;-69
2022/10/12 17:44:13;;;;;;;4.57;3.65;;;20.70;93.60;;;;;;5032412;28;20449;-68
2022/10/12 17:46:41;;;;;;;5.57;3.60;;;20.70;93.60;;;;;;5032820;28;20206;-68
2022/10/12 17:49:10;;;;;;;4.03;3.17;;;20.80;93.20;;;;;;5033142;28;20448;-74
2022/10/12 17:51:37;;;;;;;4.83;4.43;;;20.80;92.90;;;;;;5032051;28;20477;-71
2022/10/12 17:54:06;;;;;;;5.13;3.60;;;20.80;92.80;;;;;;5013867;28;20454;-70
2022/10/12 17:56:33;;;;;;;4.50;3.57;;;20.70;92.70;;;;;;5013201;28;21171;-69
2022/10/12 17:59:01;;;;;;;3.90;3.37;;;20.70;92.80;;;;;;5012729;28;20529;-69
2022/10/12 18:01:30;;;;;;;3.53;3.23;;;20.70;92.90;;;;;;5014280;28;20930;-70
2022/10/12 18:03:59;;;;;;;3.73;3.43;;;20.70;93.10;;;;;;5029559;28;20872;-67
2022/10/12 18:06:27;;;;;;;6.53;4.70;;;20.70;93.10;;;;;;5025320;28;20455;-69
2022/10/12 18:08:55;;;;;;;9.97;5.47;;;20.70;93.30;;;;;;5016624;28;20545;-70
2022/10/12 18:11:24;;;;;;;8.07;6.50;;;20.70;93.30;;;;;;5012129;28;20474;-69
2022/10/12 18:13:53;;;;;;;7.77;5.23;;;20.70;93.40;;;;;;5012055;28;20477;-67
2022/10/12 18:16:22;;;;;;;6.33;5.77;;;20.70;93.50;;;;;;5012196;28;20939;-68
2022/10/12 18:18:51;;;;;;;7.77;5.10;;;20.70;93.30;;;;;;5018762;28;20540;-69
2022/10/12 18:21:19;;;;;;;8.43;5.20;;;20.70;93.50;;;;;;5031749;28;20464;-68
2022/10/12 18:23:47;;;;;;;5.33;4.43;;;20.70;93.60;;;;;;5031724;28;20584;-69
2022/10/12 18:26:18;;;;;;;7.53;5.13;;;20.70;93.40;;;;;;5031165;28;20533;-70
2022/10/12 18:28:47;;;;;;;8.00;6.17;;;20.70;93.40;;;;;;5025092;28;20249;-68
2022/10/12 18:31:17;;;;;;;6.93;4.93;;;20.80;93.10;;;;;;5022738;28;20495;-67
2022/10/12 18:33:45;;;;;;;6.33;4.80;;;20.80;93.40;;;;;;5031558;28;20442;-67
2022/10/12 18:36:13;;;;;;;5.50;4.63;;;20.80;93.30;;;;;;5031804;28;20477;-67
2022/10/12 18:38:40;;;;;;;6.10;5.50;;;20.80;93.40;;;;;;5026262;28;20887;-66
2022/10/12 18:41:09;;;;;;;11.10;5.37;;;20.70;93.70;;;;;;5012245;28;20516;-69
2022/10/12 18:43:37;;;;;;;10.27;4.50;;;20.80;93.80;;;;;;5011620;28;20528;-70
2022/10/12 18:46:07;;;;;;;4.67;3.73;;;20.70;93.40;;;;;;5012250;28;20454;-65
2022/10/12 18:48:34;;;;;;;7.03;4.43;;;20.70;94.10;;;;;;5016057;28;20532;-68
2022/10/12 18:51:07;;;;;;;6.93;4.60;;;20.80;94.60;;;;;;5022691;28;20544;-69
2022/10/12 18:53:34;;;;;;;7.70;5.60;;;20.80;94.50;;;;;;5011318;28;20446;-68
2022/10/12 18:56:03;;;;;;;6.17;4.80;;;20.90;94.70;;;;;;5011664;28;20457;-72
2022/10/12 18:58:30;;;;;;;8.50;4.27;;;20.90;94.70;;;;;;5014881;28;20524;-69
2022/10/12 19:00:57;;;;;;;4.40;4.00;;;20.90;94.70;;;;;;5031309;28;20485;-69
2022/10/12 19:03:26;;;;;;;6.07;4.23;;;20.90;94.60;;;;;;5031098;28;20536;-67
2022/10/12 19:06:03;;;;;;;5.90;3.77;;;20.90;94.60;;;;;;5033455;28;20452;-66
2022/10/12 19:08:30;;;;;;;4.63;4.17;;;21.00;94.50;;;;;;5031524;28;20814;-65
2022/10/12 19:10:57;;;;;;;5.70;3.90;;;21.00;94.40;;;;;;5023030;28;20544;-66
2022/10/12 19:13:24;;;;;;;4.93;4.43;;;21.00;94.40;;;;;;5035020;28;20441;-66
2022/10/12 19:15:51;;;;;;;4.80;4.27;;;21.00;94.30;;;;;;5034862;28;20977;-66
2022/10/12 19:18:18;;;;;;;6.60;4.10;;;21.00;94.20;;;;;;5033422;28;20539;-67
2022/10/12 19:20:47;;;;;;;5.30;3.80;;;21.00;94.10;;;;;;5015384;28;20486;-67
2022/10/12 19:23:14;;;;;;;6.23;5.20;;;21.00;93.90;;;;;;5015424;28;20520;-65
2022/10/12 19:25:41;;;;;;;6.13;4.10;;;21.00;93.90;;;;;;5015346;28;20504;-66
2022/10/12 19:28:08;;;;;;;6.67;4.20;;;21.00;94.00;;;;;;5014948;28;20469;-66
2022/10/12 19:30:37;;;;;;;5.90;4.20;;;21.00;94.00;;;;;;5015822;28;20442;-65
2022/10/12 19:33:05;;;;;;;6.60;3.93;;;21.00;93.90;;;;;;5014587;28;20468;-66
2022/10/12 19:35:35;;;;;;;4.53;3.80;;;21.00;94.00;;;;;;5014705;28;20446;-66
2022/10/12 19:38:04;;;;;;;4.53;3.93;;;21.00;93.90;;;;;;5014968;28;20449;-66
2022/10/12 19:40:34;;;;;;;5.50;5.00;;;21.00;93.80;;;;;;5015486;28;20486;-67
2022/10/12 19:43:01;;;;;;;5.00;4.10;;;21.00;92.90;;;;;;5014516;28;21019;-66
2022/10/12 19:45:28;;;;;;;5.03;3.90;;;20.90;92.50;;;;;;5014410;28;20493;-67
2022/10/12 19:47:55;;;;;;;5.83;3.73;;;20.90;93.20;;;;;;5014470;28;20446;-68
2022/10/12 19:50:22;;;;;;;3.80;3.50;;;20.90;93.20;;;;;;5032225;28;20473;-68
2022/10/12 19:52:49;;;;;;;3.80;3.37;;;20.90;93.10;;;;;;5020246;28;20557;-68
2022/10/12 19:55:18;;;;;;;4.97;3.40;;;20.90;93.20;;;;;;5029824;28;20919;-67
2022/10/12 19:57:47;;;;;;;6.40;4.13;;;20.90;93.30;;;;;;5030163;28;20450;-67
2022/10/12 20:00:16;;;;;;;3.60;2.63;;;20.90;93.30;;;;;;5014116;28;20482;-69
2022/10/12 20:02:43;;;;;;;4.20;3.17;;;20.90;93.20;;;;;;5013897;28;20533;-70
2022/10/12 20:05:11;;;;;;;3.80;3.50;;;20.90;93.10;;;;;;5014006;28;20532;-71
2022/10/12 20:07:38;;;;;;;4.10;3.37;;;20.90;93.10;;;;;;5013891;28;20470;-68
2022/10/12 20:10:07;;;;;;;3.67;3.37;;;20.80;93.00;;;;;;5014055;28;20442;-69
2022/10/12 20:12:35;;;;;;;5.40;3.53;;;20.80;93.00;;;;;;5013850;28;20631;-68
2022/10/12 20:15:03;;;;;;;4.97;4.57;;;20.80;93.00;;;;;;5014027;28;20488;-68
2022/10/12 20:17:30;;;;;;;4.13;3.17;;;20.80;93.10;;;;;;5013846;28;20454;-69
2022/10/12 20:19:57;;;;;;;3.27;2.90;;;20.80;93.00;;;;;;5013782;28;20577;-69
2022/10/12 20:22:24;;;;;;;2.93;2.63;;;20.80;93.40;;;;;;5013593;28;20533;-69
2022/10/12 20:24:51;;;;;;;3.93;2.97;;;20.80;93.00;;;;;;5014500;28;20533;-68
2022/10/12 20:27:18;;;;;;;3.10;2.80;;;20.80;92.80;;;;;;5014856;28;20504;-67
2022/10/12 20:29:46;;;;;;;3.30;3.00;;;20.70;92.40;;;;;;5014513;28;20701;-68
2022/10/12 20:32:13;;;;;;;3.50;3.00;;;20.70;92.80;;;;;;5057796;22;20477;-66
2022/10/12 20:34:40;;;;;;;3.63;3.30;;;20.70;93.40;;;;;;5052539;28;20442;-65
2022/10/12 20:37:07;;;;;;;3.53;3.17;;;20.70;93.10;;;;;;5035473;28;20532;-67
2022/10/12 20:39:34;;;;;;;3.80;3.40;;;20.70;92.90;;;;;;5043203;28;20440;-68
2022/10/12 20:42:01;;;;;;;4.27;3.83;;;20.70;92.90;;;;;;5055574;28;20518;-68
2022/10/12 20:44:28;;;;;;;4.17;3.47;;;20.70;92.90;;;;;;5054967;28;20444;-67
2022/10/12 20:46:56;;;;;;;3.67;3.37;;;20.70;92.90;;;;;;5054244;28;20448;-68
2022/10/12 20:49:23;;;;;;;3.73;3.40;;;20.70;92.90;;;;;;5054259;28;20914;-68
2022/10/12 20:51:50;;;;;;;4.30;3.90;;;20.70;92.80;;;;;;5053637;28;20543;-68
2022/10/12 20:54:17;;;;;;;2.80;2.60;;;20.60;92.80;;;;;;5053983;28;20507;-68
2022/10/12 20:56:46;;;;;;;3.00;2.53;;;20.60;92.80;;;;;;5054052;28;20445;-67
2022/10/12 20:59:13;;;;;;;4.97;3.30;;;20.60;92.80;;;;;;5053648;28;20480;-67
2022/10/12 21:01:40;;;;;;;3.10;2.80;;;20.60;93.00;;;;;;5053833;28;20606;-65
2022/10/12 21:04:10;;;;;;;3.20;2.97;;;20.60;93.10;;;;;;5053892;28;20980;-65
2022/10/12 21:06:37;;;;;;;3.53;3.17;;;20.60;93.20;;;;;;5053787;28;20538;-67
2022/10/12 21:09:05;;;;;;;3.10;2.90;;;20.60;93.20;;;;;;5053444;28;20814;-64
2022/10/12 21:11:33;;;;;;;3.07;2.77;;;20.60;93.20;;;;;;5053263;28;20462;-66
2022/10/12 21:14:00;;;;;;;3.00;2.77;;;20.60;93.20;;;;;;5053250;28;20762;-65
2022/10/12 21:16:27;;;;;;;4.20;3.77;;;20.60;93.10;;;;;;5053464;28;20456;-65
2022/10/12 21:18:55;;;;;;;3.20;2.90;;;20.60;93.10;;;;;;5053269;28;20525;-67
2022/10/12 21:21:23;;;;;;;3.30;2.83;;;20.60;93.00;;;;;;5053513;28;20492;-65
2022/10/12 21:23:55;;;;;;;3.43;3.23;;;20.60;93.00;;;;;;5053585;28;20444;-67
2022/10/12 21:26:23;;;;;;;3.27;3.00;;;20.60;93.10;;;;;;5054104;28;20882;-68
2022/10/12 21:28:50;;;;;;;4.03;2.67;;;20.60;93.20;;;;;;5053030;28;20531;-66
2022/10/12 21:31:18;;;;;;;2.63;2.43;;;20.60;93.00;;;;;;5053005;28;20448;-67
2022/10/12 21:33:45;;;;;;;3.03;2.77;;;20.60;92.70;;;;;;5053271;28;20444;-66
2022/10/12 21:36:14;;;;;;;3.23;2.70;;;20.60;92.70;;;;;;5053495;28;20480;-68
2022/10/12 21:38:42;;;;;;;2.97;2.77;;;20.60;92.80;;;;;;5053802;28;20543;-65
2022/10/12 21:41:11;;;;;;;3.07;2.87;;;20.60;92.90;;;;;;5053398;28;20480;-68
2022/10/12 21:43:38;;;;;;;3.10;2.90;;;20.50;93.00;;;;;;5053826;28;20459;-67
2022/10/12 21:46:07;;;;;;;3.57;3.27;;;20.50;93.10;;;;;;5053415;28;20523;-64
2022/10/12 21:48:55;;;;;;;3.63;3.40;;;20.50;92.80;;;;;;5090268;27;20534;-66
2022/10/12 21:51:23;;;;;;;2.73;2.53;;;20.60;93.00;;;;;;5090616;28;20526;-66
2022/10/12 21:53:51;;;;;;;3.20;3.00;;;20.60;93.10;;;;;;5090281;28;20474;-66
2022/10/12 21:56:20;;;;;;;3.10;2.90;;;20.60;93.00;;;;;;5090708;28;20932;-66
2022/10/12 21:58:48;;;;;;;3.40;3.20;;;20.50;92.80;;;;;;5090628;28;20435;-66
2022/10/12 22:01:17;;;;;;;2.80;2.60;;;20.50;92.70;;;;;;5090803;28;20534;-66
2022/10/12 22:03:46;;;;;;;3.90;3.60;;;20.50;92.70;;;;;;5089679;28;20477;-66
2022/10/12 22:06:17;;;;;;;3.63;2.70;;;20.50;92.70;;;;;;5089735;28;20447;-65
2022/10/12 22:08:45;;;;;;;3.50;3.20;;;20.50;92.80;;;;;;5089758;28;20488;-68
2022/10/12 22:11:13;;;;;;;3.20;2.90;;;20.50;92.80;;;;;;5089970;28;20486;-66
2022/10/12 22:13:40;;;;;;;2.70;2.50;;;20.50;93.20;;;;;;5089575;28;20872;-66
2022/10/12 22:16:10;;;;;;;2.87;2.60;;;20.50;93.30;;;;;;5089512;28;20450;-67
2022/10/12 22:18:37;;;;;;;3.83;3.63;;;20.50;93.30;;;;;;5084087;28;20528;-68
2022/10/12 22:21:05;;;;;;;2.90;2.70;;;20.50;93.30;;;;;;5069277;28;20534;-65
2022/10/12 22:23:34;;;;;;;2.90;2.70;;;20.50;93.30;;;;;;5069106;28;20449;-68
2022/10/12 22:26:02;;;;;;;2.70;2.50;;;20.50;93.40;;;;;;5072803;28;20447;-67
2022/10/12 22:28:29;;;;;;;2.63;2.53;;;20.50;93.00;;;;;;5089214;28;20489;-67
2022/10/12 22:30:56;;;;;;;3.20;2.90;;;20.40;92.80;;;;;;5089553;28;20555;-67
2022/10/12 22:33:23;;;;;;;4.73;2.90;;;20.40;92.80;;;;;;5089395;28;20467;-67
